DLH8PK EDDF-LIRF
Flight info
| Callsign | DLH8PK |
|---|---|
| Flight time | 1h 31m |
| Altitude | 35000 |
| Route | CINDY8S/18 CINDY Z74 LAMPU DCT NOMBO Y161 RIDAR DCT KONIN DCT BERAS DCT LIKDA DCT BAKOR DCT VESAL DCT VIC DCT KOPER DCT SUKOM DCT GAVRA DCT RITEB |
| Aircraft | A321/M-SDE3FGHIRWY/LB1 |
Departure
| Time | 2026-05-07 07:18 |
|---|---|
| Airport | Frankfurt Main Airport (EDDF) |
Arrival
| Time | 2026-05-07 08:49 |
|---|---|
| Airport | Rome–Fiumicino Leonardo da Vinci International Airport (LIRF) |
| Time | Latitude | Longitude | Altitude | Speed | Heading |
|---|---|---|---|---|---|
| 2026-05-07 06:41 | 50.04420 | 8.56274 | 359 ft | 0 kts | 162° |
| 2026-05-07 07:04 | 50.04421 | 8.56273 | 328 ft | 2 kts | 162° |
| 2026-05-07 07:05 | 50.04445 | 8.56261 | 362 ft | 4 kts | 168° |
| 2026-05-07 07:05 | 50.04448 | 8.56260 | 361 ft | 4 kts | 170° |
| 2026-05-07 07:05 | 50.04456 | 8.56258 | 358 ft | 4 kts | 178° |
| 2026-05-07 07:05 | 50.04480 | 8.56264 | 358 ft | 4 kts | 216° |
| 2026-05-07 07:06 | 50.04493 | 8.56286 | 363 ft | 0 kts | 249° |
| 2026-05-07 07:10 | 50.04492 | 8.56283 | 356 ft | 1 kts | 249° |
| 2026-05-07 07:10 | 50.04487 | 8.56261 | 359 ft | 3 kts | 250° |
| 2026-05-07 07:10 | 50.04476 | 8.56217 | 360 ft | 5 kts | 250° |
| 2026-05-07 07:10 | 50.04462 | 8.56155 | 358 ft | 7 kts | 250° |
| 2026-05-07 07:11 | 50.04442 | 8.56079 | 357 ft | 8 kts | 243° |
| 2026-05-07 07:11 | 50.04396 | 8.56033 | 356 ft | 9 kts | 179° |
| 2026-05-07 07:11 | 50.04332 | 8.56063 | 360 ft | 11 kts | 160° |
| 2026-05-07 07:11 | 50.04263 | 8.56032 | 358 ft | 12 kts | 242° |
| 2026-05-07 07:12 | 50.04231 | 8.55903 | 357 ft | 14 kts | 249° |
| 2026-05-07 07:12 | 50.04195 | 8.55755 | 360 ft | 15 kts | 249° |
| 2026-05-07 07:12 | 50.04155 | 8.55589 | 353 ft | 17 kts | 250° |
| 2026-05-07 07:12 | 50.04112 | 8.55408 | 352 ft | 18 kts | 250° |
| 2026-05-07 07:13 | 50.04085 | 8.55293 | 354 ft | 15 kts | 249° |
| 2026-05-07 07:13 | 50.04033 | 8.55082 | 358 ft | 16 kts | 249° |
| 2026-05-07 07:13 | 50.04007 | 8.54970 | 361 ft | 17 kts | 250° |
| 2026-05-07 07:13 | 50.03963 | 8.54784 | 355 ft | 19 kts | 249° |
| 2026-05-07 07:14 | 50.03913 | 8.54579 | 353 ft | 21 kts | 250° |
| 2026-05-07 07:14 | 50.03865 | 8.54383 | 355 ft | 18 kts | 241° |
| 2026-05-07 07:14 | 50.03796 | 8.54207 | 348 ft | 20 kts | 248° |
| 2026-05-07 07:14 | 50.03748 | 8.54001 | 351 ft | 21 kts | 250° |
| 2026-05-07 07:15 | 50.03695 | 8.53784 | 345 ft | 22 kts | 249° |
| 2026-05-07 07:15 | 50.03638 | 8.53556 | 338 ft | 23 kts | 248° |
| 2026-05-07 07:15 | 50.03587 | 8.53347 | 338 ft | 18 kts | 250° |
| 2026-05-07 07:15 | 50.03541 | 8.53155 | 337 ft | 20 kts | 249° |
| 2026-05-07 07:16 | 50.03491 | 8.52949 | 333 ft | 21 kts | 249° |
| 2026-05-07 07:16 | 50.03436 | 8.52743 | 333 ft | 20 kts | 248° |
| 2026-05-07 07:16 | 50.03406 | 8.52617 | 336 ft | 8 kts | 246° |
| 2026-05-07 07:16 | 50.03367 | 8.52594 | 333 ft | 0 kts | 178° |
| 2026-05-07 07:17 | 50.03364 | 8.52594 | 333 ft | 1 kts | 178° |
| 2026-05-07 07:17 | 50.03301 | 8.52596 | 332 ft | 35 kts | 179° |
| 2026-05-07 07:17 | 50.02802 | 8.52595 | 336 ft | 107 kts | 180° |
| 2026-05-07 07:17 | 50.01844 | 8.52604 | 336 ft | 165 kts | 181° |
| 2026-05-07 07:18 | 50.00639 | 8.52631 | 902 ft | 170 kts | 180° |
| 2026-05-07 07:18 | 49.99473 | 8.52674 | 1635 ft | 171 kts | 182° |
| 2026-05-07 07:18 | 49.98210 | 8.52679 | 1995 ft | 191 kts | 181° |
| 2026-05-07 07:18 | 49.96872 | 8.53199 | 2273 ft | 215 kts | 150° |
| 2026-05-07 07:19 | 49.95816 | 8.54925 | 2592 ft | 230 kts | 118° |
| 2026-05-07 07:19 | 49.95041 | 8.57108 | 3078 ft | 233 kts | 117° |
| 2026-05-07 07:19 | 49.94292 | 8.59403 | 3514 ft | 242 kts | 107° |
| 2026-05-07 07:19 | 49.94022 | 8.61970 | 4301 ft | 241 kts | 91° |
| 2026-05-07 07:20 | 49.93922 | 8.64611 | 4902 ft | 255 kts | 91° |
| 2026-05-07 07:20 | 49.93737 | 8.67449 | 5370 ft | 272 kts | 103° |
| 2026-05-07 07:20 | 49.92911 | 8.70116 | 6062 ft | 280 kts | 127° |
| 2026-05-07 07:20 | 49.91444 | 8.72135 | 6693 ft | 287 kts | 144° |
| 2026-05-07 07:21 | 49.89800 | 8.73948 | 7344 ft | 290 kts | 143° |
| 2026-05-07 07:21 | 49.88337 | 8.76115 | 8045 ft | 293 kts | 128° |
| 2026-05-07 07:21 | 49.87232 | 8.78778 | 8731 ft | 297 kts | 119° |
| 2026-05-07 07:21 | 49.86234 | 8.81565 | 9421 ft | 301 kts | 119° |
| 2026-05-07 07:22 | 49.85194 | 8.84458 | 10084 ft | 305 kts | 120° |
| 2026-05-07 07:22 | 49.84530 | 8.86299 | 10274 ft | 317 kts | 120° |
| 2026-05-07 07:22 | 49.83429 | 8.89335 | 10401 ft | 339 kts | 120° |
| 2026-05-07 07:22 | 49.82236 | 8.92613 | 10531 ft | 359 kts | 120° |
| 2026-05-07 07:23 | 49.80991 | 8.96035 | 10947 ft | 368 kts | 120° |
| 2026-05-07 07:23 | 49.79729 | 8.99497 | 11558 ft | 371 kts | 120° |
| 2026-05-07 07:23 | 49.78466 | 9.02960 | 12208 ft | 373 kts | 119° |
| 2026-05-07 07:23 | 49.77186 | 9.06468 | 12872 ft | 374 kts | 118° |
| 2026-05-07 07:24 | 49.76751 | 9.07743 | 13067 ft | 376 kts | 115° |
| 2026-05-07 07:24 | 49.76212 | 9.09701 | 13411 ft | 376 kts | 109° |
| 2026-05-07 07:25 | 49.74643 | 9.17458 | 14503 ft | 382 kts | 113° |
| 2026-05-07 07:25 | 49.73320 | 9.21034 | 15027 ft | 386 kts | 125° |
| 2026-05-07 07:25 | 49.71591 | 9.24248 | 15542 ft | 389 kts | 131° |
| 2026-05-07 07:26 | 49.69791 | 9.27390 | 16076 ft | 392 kts | 131° |
| 2026-05-07 07:26 | 49.67987 | 9.30559 | 16640 ft | 394 kts | 130° |
| 2026-05-07 07:26 | 49.66174 | 9.33754 | 17165 ft | 397 kts | 130° |
| 2026-05-07 07:26 | 49.64354 | 9.36971 | 17708 ft | 399 kts | 130° |
| 2026-05-07 07:27 | 49.62502 | 9.40097 | 18181 ft | 402 kts | 136° |
| 2026-05-07 07:27 | 49.60272 | 9.42868 | 18582 ft | 406 kts | 146° |
| 2026-05-07 07:27 | 49.57873 | 9.45104 | 18974 ft | 409 kts | 149° |
| 2026-05-07 07:27 | 49.55418 | 9.47339 | 19433 ft | 411 kts | 149° |
| 2026-05-07 07:28 | 49.52954 | 9.49578 | 19878 ft | 412 kts | 149° |
| 2026-05-07 07:28 | 49.50477 | 9.51830 | 20301 ft | 415 kts | 149° |
| 2026-05-07 07:28 | 49.47982 | 9.54103 | 20704 ft | 418 kts | 149° |
| 2026-05-07 07:28 | 49.45472 | 9.56391 | 21112 ft | 420 kts | 149° |
| 2026-05-07 07:29 | 49.42962 | 9.58674 | 21534 ft | 423 kts | 149° |
| 2026-05-07 07:29 | 49.40421 | 9.60982 | 21947 ft | 425 kts | 149° |
| 2026-05-07 07:29 | 49.37868 | 9.63300 | 22358 ft | 427 kts | 149° |
| 2026-05-07 07:29 | 49.35311 | 9.65656 | 22751 ft | 430 kts | 146° |
| 2026-05-07 07:30 | 49.32961 | 9.68440 | 23115 ft | 432 kts | 136° |
| 2026-05-07 07:30 | 49.30815 | 9.71692 | 23472 ft | 435 kts | 134° |
| 2026-05-07 07:30 | 49.28676 | 9.74978 | 23814 ft | 437 kts | 134° |
| 2026-05-07 07:30 | 49.26515 | 9.78282 | 24155 ft | 439 kts | 134° |
| 2026-05-07 07:31 | 49.24343 | 9.81590 | 24493 ft | 442 kts | 134° |
| 2026-05-07 07:31 | 49.22158 | 9.84907 | 24808 ft | 444 kts | 134° |
| 2026-05-07 07:31 | 49.19985 | 9.88196 | 25139 ft | 446 kts | 134° |
| 2026-05-07 07:31 | 49.17772 | 9.91544 | 25477 ft | 448 kts | 134° |
| 2026-05-07 07:32 | 49.15551 | 9.94909 | 25805 ft | 450 kts | 134° |
| 2026-05-07 07:32 | 49.13322 | 9.98289 | 26134 ft | 452 kts | 134° |
| 2026-05-07 07:32 | 49.11083 | 10.01678 | 26454 ft | 454 kts | 134° |
| 2026-05-07 07:32 | 49.08832 | 10.05081 | 26787 ft | 456 kts | 134° |
| 2026-05-07 07:33 | 49.06569 | 10.08494 | 27091 ft | 458 kts | 134° |
| 2026-05-07 07:33 | 49.04275 | 10.11888 | 27412 ft | 460 kts | 135° |
| 2026-05-07 07:33 | 49.01933 | 10.15235 | 27720 ft | 462 kts | 136° |
| 2026-05-07 07:33 | 48.99560 | 10.18555 | 28029 ft | 464 kts | 138° |
| 2026-05-07 07:34 | 48.97172 | 10.21871 | 28340 ft | 465 kts | 138° |
| 2026-05-07 07:34 | 48.94780 | 10.25193 | 28603 ft | 467 kts | 138° |
| 2026-05-07 07:34 | 48.92392 | 10.28525 | 28938 ft | 468 kts | 138° |
| 2026-05-07 07:34 | 48.89981 | 10.31915 | 29183 ft | 471 kts | 138° |
| 2026-05-07 07:35 | 48.87579 | 10.35307 | 29524 ft | 471 kts | 137° |
| 2026-05-07 07:35 | 48.85181 | 10.38689 | 29853 ft | 470 kts | 137° |
| 2026-05-07 07:35 | 48.82790 | 10.42064 | 30228 ft | 468 kts | 137° |
| 2026-05-07 07:35 | 48.80471 | 10.45513 | 30539 ft | 466 kts | 135° |
| 2026-05-07 07:36 | 48.78263 | 10.49004 | 30834 ft | 464 kts | 134° |
| 2026-05-07 07:36 | 48.76072 | 10.52599 | 31110 ft | 463 kts | 134° |
| 2026-05-07 07:36 | 48.73917 | 10.56178 | 31428 ft | 460 kts | 135° |
| 2026-05-07 07:36 | 48.71759 | 10.59740 | 31740 ft | 458 kts | 135° |
| 2026-05-07 07:37 | 48.69584 | 10.63270 | 32002 ft | 457 kts | 136° |
| 2026-05-07 07:37 | 48.67395 | 10.66766 | 32252 ft | 456 kts | 136° |
| 2026-05-07 07:37 | 48.65202 | 10.70237 | 32494 ft | 456 kts | 136° |
| 2026-05-07 07:37 | 48.63010 | 10.73696 | 32737 ft | 455 kts | 136° |
| 2026-05-07 07:38 | 48.60808 | 10.77150 | 32971 ft | 454 kts | 139° |
| 2026-05-07 07:38 | 48.58420 | 10.80228 | 33200 ft | 450 kts | 147° |
| 2026-05-07 07:38 | 48.55769 | 10.82701 | 33403 ft | 446 kts | 155° |
| 2026-05-07 07:38 | 48.53010 | 10.84839 | 33603 ft | 447 kts | 155° |
| 2026-05-07 07:39 | 48.50244 | 10.86989 | 33833 ft | 446 kts | 156° |
| 2026-05-07 07:39 | 48.47499 | 10.89134 | 34133 ft | 443 kts | 156° |
| 2026-05-07 07:39 | 48.44770 | 10.91272 | 34353 ft | 442 kts | 156° |
| 2026-05-07 07:39 | 48.42041 | 10.93406 | 34539 ft | 441 kts | 156° |
| 2026-05-07 07:40 | 48.39319 | 10.95530 | 34710 ft | 441 kts | 156° |
| 2026-05-07 07:40 | 48.36592 | 10.97651 | 34887 ft | 441 kts | 156° |
| 2026-05-07 07:40 | 48.33895 | 10.99740 | 34974 ft | 441 kts | 156° |
| 2026-05-07 07:41 | 48.28448 | 11.03949 | 34995 ft | 440 kts | 156° |
| 2026-05-07 07:41 | 48.22996 | 11.08159 | 34998 ft | 440 kts | 156° |
| 2026-05-07 07:42 | 48.17547 | 11.12349 | 34999 ft | 440 kts | 156° |
| 2026-05-07 07:42 | 48.12098 | 11.16542 | 34980 ft | 439 kts | 157° |
| 2026-05-07 07:43 | 48.06673 | 11.20720 | 34991 ft | 438 kts | 157° |
| 2026-05-07 07:43 | 48.01248 | 11.24877 | 35001 ft | 438 kts | 157° |
| 2026-05-07 07:44 | 47.95821 | 11.29016 | 35017 ft | 438 kts | 157° |
| 2026-05-07 07:44 | 47.90394 | 11.33156 | 35015 ft | 438 kts | 157° |
| 2026-05-07 07:45 | 47.85001 | 11.37257 | 35001 ft | 438 kts | 157° |
| 2026-05-07 07:45 | 47.79621 | 11.41545 | 34997 ft | 439 kts | 155° |
| 2026-05-07 07:46 | 47.74284 | 11.45980 | 34988 ft | 438 kts | 156° |
| 2026-05-07 07:46 | 47.68952 | 11.50366 | 35013 ft | 437 kts | 156° |
| 2026-05-07 07:47 | 47.63613 | 11.54682 | 35011 ft | 436 kts | 156° |
| 2026-05-07 07:47 | 47.58288 | 11.58972 | 35016 ft | 435 kts | 156° |
| 2026-05-07 07:48 | 47.53002 | 11.63242 | 35028 ft | 435 kts | 156° |
| 2026-05-07 07:48 | 47.47686 | 11.67534 | 35028 ft | 435 kts | 156° |
| 2026-05-07 07:49 | 47.42376 | 11.71791 | 35029 ft | 435 kts | 156° |
| 2026-05-07 07:49 | 47.36956 | 11.75574 | 35016 ft | 425 kts | 168° |
| 2026-05-07 07:50 | 47.31210 | 11.76710 | 35025 ft | 412 kts | 186° |
| 2026-05-07 07:50 | 47.25482 | 11.76372 | 35023 ft | 412 kts | 186° |
| 2026-05-07 07:51 | 47.19750 | 11.76062 | 35023 ft | 412 kts | 186° |
| 2026-05-07 07:51 | 47.14020 | 11.75756 | 35015 ft | 411 kts | 186° |
| 2026-05-07 07:52 | 47.08294 | 11.75448 | 35005 ft | 411 kts | 186° |
| 2026-05-07 07:52 | 47.02624 | 11.75139 | 34988 ft | 410 kts | 186° |
| 2026-05-07 07:53 | 46.96914 | 11.74819 | 34988 ft | 411 kts | 186° |
| 2026-05-07 07:53 | 46.91189 | 11.74496 | 34988 ft | 411 kts | 186° |
| 2026-05-07 07:54 | 46.85468 | 11.74187 | 34988 ft | 412 kts | 186° |
| 2026-05-07 07:54 | 46.79749 | 11.73881 | 34986 ft | 411 kts | 186° |
| 2026-05-07 07:55 | 46.74036 | 11.73572 | 34975 ft | 411 kts | 186° |
| 2026-05-07 07:55 | 46.68320 | 11.73269 | 34987 ft | 411 kts | 186° |
| 2026-05-07 07:56 | 46.62612 | 11.72953 | 34973 ft | 410 kts | 186° |
| 2026-05-07 07:56 | 46.56901 | 11.72637 | 34976 ft | 411 kts | 186° |
| 2026-05-07 07:57 | 46.51186 | 11.72315 | 34983 ft | 411 kts | 186° |
| 2026-05-07 07:57 | 46.45468 | 11.71991 | 34990 ft | 411 kts | 186° |
| 2026-05-07 07:58 | 46.39740 | 11.71671 | 34974 ft | 411 kts | 186° |
| 2026-05-07 07:58 | 46.34058 | 11.71359 | 34977 ft | 412 kts | 186° |
| 2026-05-07 07:59 | 46.28338 | 11.71057 | 34983 ft | 411 kts | 186° |
| 2026-05-07 07:59 | 46.22583 | 11.70759 | 34988 ft | 411 kts | 186° |
| 2026-05-07 08:00 | 46.16897 | 11.70449 | 34994 ft | 412 kts | 186° |
| 2026-05-07 08:00 | 46.11178 | 11.70137 | 34999 ft | 411 kts | 186° |
| 2026-05-07 08:01 | 46.05458 | 11.69843 | 35000 ft | 411 kts | 186° |
| 2026-05-07 08:01 | 46.00701 | 11.69592 | 35005 ft | 411 kts | 186° |
| 2026-05-07 08:02 | 45.94953 | 11.69281 | 34995 ft | 410 kts | 186° |
| 2026-05-07 08:02 | 45.89275 | 11.68978 | 34995 ft | 411 kts | 186° |
| 2026-05-07 08:03 | 45.83559 | 11.68673 | 35007 ft | 412 kts | 186° |
| 2026-05-07 08:03 | 45.77830 | 11.68371 | 35004 ft | 411 kts | 186° |
| 2026-05-07 08:04 | 45.72105 | 11.68072 | 34989 ft | 412 kts | 187° |
| 2026-05-07 08:04 | 45.66371 | 11.67773 | 34988 ft | 412 kts | 187° |
| 2026-05-07 08:05 | 45.60642 | 11.67453 | 34995 ft | 412 kts | 187° |
| 2026-05-07 08:05 | 45.54910 | 11.67030 | 34974 ft | 412 kts | 188° |
| 2026-05-07 08:06 | 45.49221 | 11.66577 | 34978 ft | 412 kts | 188° |
| 2026-05-07 08:06 | 45.43491 | 11.66146 | 34983 ft | 413 kts | 187° |
| 2026-05-07 08:07 | 45.37755 | 11.65745 | 34991 ft | 413 kts | 187° |
| 2026-05-07 08:07 | 45.32038 | 11.65342 | 34979 ft | 413 kts | 188° |
| 2026-05-07 08:08 | 45.26301 | 11.64925 | 34974 ft | 413 kts | 188° |
| 2026-05-07 08:08 | 45.20567 | 11.64508 | 35007 ft | 412 kts | 188° |
| 2026-05-07 08:09 | 45.14841 | 11.64115 | 35005 ft | 413 kts | 187° |
| 2026-05-07 08:09 | 45.09080 | 11.64206 | 35027 ft | 415 kts | 183° |
| 2026-05-07 08:10 | 45.03312 | 11.64618 | 35034 ft | 415 kts | 182° |
| 2026-05-07 08:10 | 44.97539 | 11.64996 | 35023 ft | 415 kts | 183° |
| 2026-05-07 08:11 | 44.91811 | 11.65282 | 35029 ft | 415 kts | 184° |
| 2026-05-07 08:11 | 44.86031 | 11.65535 | 35033 ft | 415 kts | 184° |
| 2026-05-07 08:12 | 44.80313 | 11.65794 | 35034 ft | 415 kts | 184° |
| 2026-05-07 08:12 | 44.74540 | 11.66057 | 35016 ft | 415 kts | 184° |
| 2026-05-07 08:13 | 44.68777 | 11.66327 | 35019 ft | 415 kts | 184° |
| 2026-05-07 08:13 | 44.62999 | 11.66603 | 35025 ft | 415 kts | 184° |
| 2026-05-07 08:14 | 44.57222 | 11.66871 | 35012 ft | 415 kts | 184° |
| 2026-05-07 08:14 | 44.51434 | 11.67721 | 35012 ft | 421 kts | 178° |
| 2026-05-07 08:15 | 44.45639 | 11.68898 | 35021 ft | 421 kts | 178° |
| 2026-05-07 08:15 | 44.39878 | 11.70065 | 35009 ft | 421 kts | 178° |
| 2026-05-07 08:16 | 44.34088 | 11.71233 | 35013 ft | 420 kts | 178° |
| 2026-05-07 08:16 | 44.28295 | 11.72390 | 35021 ft | 420 kts | 179° |
| 2026-05-07 08:17 | 44.22505 | 11.73558 | 35017 ft | 420 kts | 178° |
| 2026-05-07 08:17 | 44.16718 | 11.74716 | 35020 ft | 420 kts | 179° |
| 2026-05-07 08:18 | 44.10929 | 11.75871 | 35031 ft | 420 kts | 179° |
| 2026-05-07 08:18 | 44.05134 | 11.77022 | 35031 ft | 420 kts | 179° |
| 2026-05-07 08:19 | 43.99344 | 11.78167 | 35003 ft | 420 kts | 179° |
| 2026-05-07 08:19 | 43.93590 | 11.79304 | 35021 ft | 420 kts | 179° |
| 2026-05-07 08:20 | 43.87795 | 11.80458 | 35035 ft | 420 kts | 179° |
| 2026-05-07 08:20 | 43.82009 | 11.81606 | 35035 ft | 420 kts | 179° |
| 2026-05-07 08:21 | 43.76234 | 11.82805 | 35028 ft | 421 kts | 177° |
| 2026-05-07 08:21 | 43.70484 | 11.84525 | 35043 ft | 424 kts | 174° |
| 2026-05-07 08:22 | 43.64760 | 11.86509 | 35047 ft | 424 kts | 173° |
| 2026-05-07 08:22 | 43.59041 | 11.88437 | 35026 ft | 423 kts | 174° |
| 2026-05-07 08:23 | 43.53367 | 11.90243 | 34778 ft | 421 kts | 175° |
| 2026-05-07 08:23 | 43.50514 | 11.91136 | 34496 ft | 419 kts | 175° |
| 2026-05-07 08:23 | 43.47686 | 11.92019 | 33735 ft | 421 kts | 175° |
| 2026-05-07 08:23 | 43.44828 | 11.92910 | 32926 ft | 422 kts | 175° |
| 2026-05-07 08:24 | 43.41977 | 11.93805 | 32123 ft | 422 kts | 175° |
| 2026-05-07 08:24 | 43.39104 | 11.94707 | 31283 ft | 424 kts | 174° |
| 2026-05-07 08:24 | 43.36227 | 11.95614 | 30466 ft | 425 kts | 174° |
| 2026-05-07 08:24 | 43.33326 | 11.96527 | 29492 ft | 429 kts | 174° |
| 2026-05-07 08:25 | 43.30440 | 11.97442 | 29025 ft | 421 kts | 174° |
| 2026-05-07 08:25 | 43.27608 | 11.98349 | 28475 ft | 415 kts | 174° |
| 2026-05-07 08:25 | 43.24827 | 11.99238 | 27930 ft | 409 kts | 174° |
| 2026-05-07 08:25 | 43.22073 | 12.00111 | 27393 ft | 403 kts | 174° |
| 2026-05-07 08:26 | 43.16673 | 12.01801 | 26329 ft | 392 kts | 174° |
| 2026-05-07 08:26 | 43.14032 | 12.02627 | 25809 ft | 387 kts | 174° |
| 2026-05-07 08:26 | 43.11420 | 12.03441 | 25301 ft | 383 kts | 174° |
| 2026-05-07 08:27 | 43.08832 | 12.04247 | 24764 ft | 379 kts | 174° |
| 2026-05-07 08:27 | 43.06277 | 12.05044 | 24283 ft | 375 kts | 173° |
| 2026-05-07 08:27 | 43.03757 | 12.05831 | 23801 ft | 373 kts | 173° |
| 2026-05-07 08:27 | 43.01271 | 12.06609 | 23268 ft | 370 kts | 173° |
| 2026-05-07 08:28 | 42.98767 | 12.07392 | 22753 ft | 368 kts | 173° |
| 2026-05-07 08:28 | 42.96272 | 12.08168 | 22300 ft | 367 kts | 173° |
| 2026-05-07 08:28 | 42.93789 | 12.08941 | 21838 ft | 365 kts | 173° |
| 2026-05-07 08:28 | 42.91317 | 12.09710 | 21391 ft | 363 kts | 172° |
| 2026-05-07 08:29 | 42.88863 | 12.10476 | 20947 ft | 361 kts | 172° |
| 2026-05-07 08:29 | 42.86416 | 12.11235 | 20512 ft | 359 kts | 172° |
| 2026-05-07 08:29 | 42.83986 | 12.11990 | 20089 ft | 357 kts | 172° |
| 2026-05-07 08:29 | 42.81575 | 12.12737 | 19652 ft | 353 kts | 172° |
| 2026-05-07 08:30 | 42.79226 | 12.13471 | 19509 ft | 340 kts | 172° |
| 2026-05-07 08:30 | 42.76959 | 12.14186 | 19352 ft | 327 kts | 172° |
| 2026-05-07 08:30 | 42.74766 | 12.14873 | 19061 ft | 321 kts | 172° |
| 2026-05-07 08:30 | 42.72636 | 12.15532 | 18720 ft | 316 kts | 173° |
| 2026-05-07 08:31 | 42.70517 | 12.16233 | 18336 ft | 316 kts | 167° |
| 2026-05-07 08:31 | 42.68496 | 12.17442 | 17855 ft | 320 kts | 155° |
| 2026-05-07 08:31 | 42.66596 | 12.18969 | 17355 ft | 320 kts | 155° |
| 2026-05-07 08:31 | 42.64672 | 12.20518 | 16877 ft | 318 kts | 155° |
| 2026-05-07 08:32 | 42.62770 | 12.22045 | 16420 ft | 316 kts | 155° |
| 2026-05-07 08:32 | 42.60874 | 12.23561 | 15953 ft | 315 kts | 155° |
| 2026-05-07 08:32 | 42.58992 | 12.25065 | 15517 ft | 314 kts | 155° |
| 2026-05-07 08:32 | 42.57124 | 12.26554 | 15101 ft | 312 kts | 155° |
| 2026-05-07 08:33 | 42.55254 | 12.28044 | 14683 ft | 311 kts | 155° |
| 2026-05-07 08:33 | 42.53391 | 12.29527 | 14268 ft | 310 kts | 155° |
| 2026-05-07 08:33 | 42.51535 | 12.31007 | 13868 ft | 309 kts | 155° |
| 2026-05-07 08:33 | 42.49688 | 12.32477 | 13439 ft | 307 kts | 154° |
| 2026-05-07 08:34 | 42.47849 | 12.33940 | 13010 ft | 305 kts | 154° |
| 2026-05-07 08:34 | 42.46041 | 12.35379 | 12247 ft | 300 kts | 154° |
| 2026-05-07 08:34 | 42.44251 | 12.36802 | 11454 ft | 297 kts | 154° |
| 2026-05-07 08:34 | 42.42474 | 12.38212 | 10700 ft | 294 kts | 153° |
| 2026-05-07 08:35 | 42.40731 | 12.39593 | 10153 ft | 295 kts | 153° |
| 2026-05-07 08:35 | 42.38903 | 12.40735 | 9913 ft | 285 kts | 169° |
| 2026-05-07 08:35 | 42.36959 | 12.40952 | 9780 ft | 281 kts | 189° |
| 2026-05-07 08:35 | 42.36340 | 12.40813 | 9739 ft | 280 kts | 197° |
| 2026-05-07 08:36 | 42.35426 | 12.40401 | 9682 ft | 277 kts | 207° |
| 2026-05-07 08:36 | 42.34691 | 12.39857 | 9621 ft | 275 kts | 217° |
| 2026-05-07 08:36 | 42.33748 | 12.38766 | 9534 ft | 272 kts | 230° |
| 2026-05-07 08:36 | 42.33437 | 12.38262 | 9495 ft | 272 kts | 235° |
| 2026-05-07 08:37 | 42.32602 | 12.35987 | 9369 ft | 270 kts | 255° |
| 2026-05-07 08:37 | 42.32422 | 12.33485 | 9232 ft | 271 kts | 275° |
| 2026-05-07 08:37 | 42.32882 | 12.31024 | 9100 ft | 273 kts | 289° |
| 2026-05-07 08:37 | 42.33541 | 12.28611 | 8971 ft | 273 kts | 288° |
| 2026-05-07 08:38 | 42.34200 | 12.26195 | 8835 ft | 273 kts | 288° |
| 2026-05-07 08:38 | 42.34857 | 12.23789 | 8713 ft | 269 kts | 289° |
| 2026-05-07 08:38 | 42.35491 | 12.21473 | 8571 ft | 257 kts | 289° |
| 2026-05-07 08:38 | 42.36089 | 12.19289 | 8450 ft | 247 kts | 289° |
| 2026-05-07 08:39 | 42.36502 | 12.17069 | 8319 ft | 236 kts | 270° |
| 2026-05-07 08:39 | 42.36219 | 12.14948 | 8191 ft | 233 kts | 246° |
| 2026-05-07 08:39 | 42.35281 | 12.13170 | 8063 ft | 235 kts | 221° |
| 2026-05-07 08:39 | 42.33852 | 12.12097 | 7941 ft | 238 kts | 197° |
| 2026-05-07 08:40 | 42.32194 | 12.11972 | 7812 ft | 242 kts | 171° |
| 2026-05-07 08:40 | 42.30571 | 12.12618 | 7687 ft | 244 kts | 165° |
| 2026-05-07 08:40 | 42.28951 | 12.13313 | 7527 ft | 245 kts | 165° |
| 2026-05-07 08:40 | 42.27331 | 12.14002 | 7258 ft | 243 kts | 165° |
| 2026-05-07 08:41 | 42.25723 | 12.14684 | 6939 ft | 242 kts | 165° |
| 2026-05-07 08:41 | 42.24123 | 12.15361 | 6608 ft | 241 kts | 165° |
| 2026-05-07 08:41 | 42.22526 | 12.16039 | 6275 ft | 240 kts | 165° |
| 2026-05-07 08:41 | 42.20950 | 12.16704 | 5927 ft | 240 kts | 165° |
| 2026-05-07 08:42 | 42.19358 | 12.17372 | 5582 ft | 240 kts | 165° |
| 2026-05-07 08:42 | 42.17762 | 12.18045 | 5269 ft | 241 kts | 164° |
| 2026-05-07 08:42 | 42.16158 | 12.18716 | 4933 ft | 241 kts | 166° |
| 2026-05-07 08:42 | 42.14513 | 12.18988 | 4560 ft | 237 kts | 186° |
| 2026-05-07 08:43 | 42.12906 | 12.18587 | 4274 ft | 234 kts | 194° |
| 2026-05-07 08:43 | 42.11334 | 12.18109 | 3951 ft | 231 kts | 193° |
| 2026-05-07 08:43 | 42.09764 | 12.17638 | 3633 ft | 229 kts | 193° |
| 2026-05-07 08:43 | 42.08219 | 12.17174 | 3317 ft | 227 kts | 193° |
| 2026-05-07 08:44 | 42.06656 | 12.16998 | 2996 ft | 226 kts | 174° |
| 2026-05-07 08:44 | 42.05157 | 12.17505 | 2930 ft | 222 kts | 162° |
| 2026-05-07 08:44 | 42.03679 | 12.18147 | 2885 ft | 223 kts | 163° |
| 2026-05-07 08:44 | 42.02198 | 12.18778 | 2769 ft | 223 kts | 163° |
| 2026-05-07 08:45 | 42.00716 | 12.19388 | 2700 ft | 222 kts | 163° |
| 2026-05-07 08:45 | 41.99253 | 12.19994 | 2625 ft | 221 kts | 163° |
| 2026-05-07 08:45 | 41.97818 | 12.20597 | 2577 ft | 210 kts | 163° |
| 2026-05-07 08:45 | 41.96439 | 12.21177 | 2415 ft | 206 kts | 163° |
| 2026-05-07 08:46 | 41.95111 | 12.21735 | 2190 ft | 196 kts | 162° |
| 2026-05-07 08:46 | 41.93849 | 12.22265 | 1928 ft | 184 kts | 162° |
| 2026-05-07 08:46 | 41.92671 | 12.22760 | 1689 ft | 170 kts | 162° |
| 2026-05-07 08:46 | 41.91579 | 12.23219 | 1478 ft | 157 kts | 162° |
| 2026-05-07 08:47 | 41.90575 | 12.23641 | 1267 ft | 147 kts | 162° |
| 2026-05-07 08:47 | 41.89607 | 12.24047 | 1071 ft | 144 kts | 162° |
| 2026-05-07 08:47 | 41.88660 | 12.24444 | 883 ft | 143 kts | 162° |
| 2026-05-07 08:47 | 41.87709 | 12.24843 | 691 ft | 143 kts | 162° |
| 2026-05-07 08:48 | 41.86754 | 12.25244 | 511 ft | 145 kts | 161° |
| 2026-05-07 08:48 | 41.85790 | 12.25648 | 317 ft | 147 kts | 161° |
| 2026-05-07 08:48 | 41.84818 | 12.26051 | 121 ft | 148 kts | 162° |
| 2026-05-07 08:48 | 41.83880 | 12.26430 | 19 ft | 131 kts | 164° |
| 2026-05-07 08:49 | 41.83266 | 12.26712 | 11 ft | 51 kts | 161° |
| 2026-05-07 08:49 | 41.83131 | 12.26768 | 12 ft | 4 kts | 163° |
| 2026-05-07 08:49 | 41.83028 | 12.26810 | 12 ft | 27 kts | 163° |
| 2026-05-07 08:49 | 41.82877 | 12.26859 | 13 ft | 17 kts | 171° |
| 2026-05-07 08:50 | 41.82754 | 12.26873 | 13 ft | 18 kts | 180° |
| 2026-05-07 08:50 | 41.82624 | 12.26850 | 10 ft | 16 kts | 192° |
| 2026-05-07 08:50 | 41.82510 | 12.26812 | 11 ft | 17 kts | 194° |
| 2026-05-07 08:50 | 41.82391 | 12.26781 | 11 ft | 18 kts | 182° |
| 2026-05-07 08:51 | 41.82266 | 12.26803 | 12 ft | 19 kts | 163° |
| 2026-05-07 08:51 | 41.82181 | 12.26837 | 12 ft | 20 kts | 162° |
| 2026-05-07 08:51 | 41.82048 | 12.26894 | 11 ft | 21 kts | 162° |
| 2026-05-07 08:51 | 41.81902 | 12.26957 | 11 ft | 22 kts | 162° |
| 2026-05-07 08:52 | 41.81701 | 12.27040 | 12 ft | 24 kts | 162° |
| 2026-05-07 08:52 | 41.81596 | 12.27084 | 12 ft | 24 kts | 163° |
| 2026-05-07 08:52 | 41.81430 | 12.27153 | 12 ft | 25 kts | 162° |
| 2026-05-07 08:52 | 41.81262 | 12.27224 | 12 ft | 25 kts | 162° |
| 2026-05-07 08:53 | 41.81096 | 12.27293 | 12 ft | 21 kts | 163° |
| 2026-05-07 08:53 | 41.80958 | 12.27349 | 13 ft | 21 kts | 169° |
| 2026-05-07 08:53 | 41.80816 | 12.27330 | 13 ft | 20 kts | 190° |
| 2026-05-07 08:53 | 41.80684 | 12.27275 | 14 ft | 20 kts | 220° |
| 2026-05-07 08:54 | 41.80622 | 12.27102 | 13 ft | 21 kts | 247° |
| 2026-05-07 08:54 | 41.80578 | 12.26945 | 13 ft | 18 kts | 249° |
| 2026-05-07 08:54 | 41.80532 | 12.26782 | 14 ft | 19 kts | 249° |
| 2026-05-07 08:54 | 41.80489 | 12.26621 | 15 ft | 19 kts | 250° |
| 2026-05-07 08:55 | 41.80444 | 12.26453 | 17 ft | 20 kts | 250° |
| 2026-05-07 08:55 | 41.80395 | 12.26276 | 15 ft | 19 kts | 249° |
| 2026-05-07 08:55 | 41.80333 | 12.26113 | 14 ft | 20 kts | 222° |
| 2026-05-07 08:55 | 41.80211 | 12.26031 | 14 ft | 20 kts | 204° |
| 2026-05-07 08:56 | 41.80081 | 12.25952 | 14 ft | 21 kts | 204° |
| 2026-05-07 08:56 | 41.79956 | 12.25875 | 14 ft | 13 kts | 206° |
| 2026-05-07 08:56 | 41.79872 | 12.25826 | 15 ft | 12 kts | 188° |
| 2026-05-07 08:56 | 41.79802 | 12.25822 | 14 ft | 10 kts | 197° |
| 2026-05-07 08:57 | 41.79741 | 12.25784 | 15 ft | 4 kts | 206° |
| 2026-05-07 08:57 | 41.79725 | 12.25796 | 14 ft | 3 kts | 126° |
| 2026-05-07 08:57 | 41.79712 | 12.25824 | 14 ft | 3 kts | 118° |
| 2026-05-07 08:57 | 41.79706 | 12.25841 | 16 ft | 0 kts | 115° |